Cassel, California
Current Conditions -  °F | °C
As of 12:56 AM on Sunday 21 Dec 2014 (Local Time) from KMHS Reporting Station
Overcast Overcast  
Wind Chill: 42°   Ceiling: 4600
Heat Index: 45°   Visibility: 10mi
Dew Point: 42°   Wind: 6mph
Humidity: 90%   Direction: 110°ESE
Pressure: 30.17"   Gusts: NA
Location:  40.92°N, 121.55°W
Report Text: KMHS 210856Z AUTO 11005KT 10SM FEW006 FEW022 OVC046 07/06 A3017 RMK AO2 SLP235 T00720056 50001
Loading
Personal Weather Stations






























Interactive Weather Map New forecast layout! Learn more

10-Day Weather Forecast

Advertisements
Track Severe Weather on mobile